createdAt,value
2019-03-27T00:02:03.013Z,4.61
2019-03-27T00:04:37.617Z,4.47
2019-03-27T00:07:12.275Z,4.44
2019-03-27T00:09:49.627Z,4.43
2019-03-27T00:12:24.210Z,4.43
2019-03-27T00:15:11.592Z,4.36
2019-03-27T00:17:35.030Z,4.32
2019-03-27T00:20:11.073Z,4.27
2019-03-27T00:22:47.047Z,4.17
2019-03-27T00:25:21.766Z,4.09
2019-03-27T00:27:56.698Z,4.06
2019-03-27T00:30:31.324Z,4.02
2019-03-27T00:33:05.952Z,4.03
2019-03-27T00:35:40.445Z,4.01
2019-03-27T00:38:15.008Z,3.96
2019-03-27T00:40:51.169Z,3.88
2019-03-27T00:43:27.956Z,3.89
2019-03-27T00:46:02.733Z,3.89
2019-03-27T00:48:37.232Z,3.90
2019-03-27T00:51:13.661Z,3.90
2019-03-27T00:53:49.624Z,3.97
2019-03-27T00:56:24.369Z,4.03
2019-03-27T00:58:58.941Z,4.05
2019-03-27T01:01:33.546Z,4.10
2019-03-27T01:04:08.130Z,4.09
2019-03-27T01:06:42.547Z,4.25
2019-03-27T01:09:17.209Z,4.20
2019-03-27T01:11:54.560Z,4.25
2019-03-27T01:14:30.115Z,4.23
2019-03-27T01:17:04.737Z,4.07
2019-03-27T01:19:39.281Z,3.97
2019-03-27T01:22:13.886Z,3.86
2019-03-27T01:24:48.493Z,3.83
2019-03-27T01:27:22.986Z,3.81
2019-03-27T01:29:57.633Z,3.89
2019-03-27T01:32:32.394Z,3.92
2019-03-27T01:35:07.223Z,3.96
2019-03-27T01:37:43.079Z,4.01
2019-03-27T01:40:18.027Z,4.13
2019-03-27T01:42:54.135Z,4.16
2019-03-27T01:45:28.699Z,4.28
2019-03-27T01:48:03.221Z,4.31
2019-03-27T01:50:38.161Z,4.37
2019-03-27T01:53:14.461Z,4.42
2019-03-27T01:55:48.871Z,4.51
2019-03-27T01:58:24.454Z,4.64
2019-03-27T02:00:59.320Z,4.72
2019-03-27T02:03:35.331Z,4.70
2019-03-27T02:06:09.803Z,4.77
2019-03-27T02:08:44.218Z,4.81
2019-03-27T02:11:18.849Z,4.79
2019-03-27T02:13:56.138Z,4.77
2019-03-27T02:16:30.763Z,4.83
2019-03-27T02:19:05.202Z,4.85
2019-03-27T02:21:42.559Z,4.92
2019-03-27T02:24:17.387Z,4.90
2019-03-27T02:26:52.387Z,4.94
2019-03-27T02:29:27.027Z,4.93
2019-03-27T02:32:02.920Z,5.03
2019-03-27T02:34:37.550Z,4.95
2019-03-27T02:37:12.490Z,4.99
2019-03-27T02:39:48.649Z,5.03
2019-03-27T02:42:23.377Z,5.00
2019-03-27T02:44:58.205Z,5.06
2019-03-27T02:47:33.247Z,5.13
2019-03-27T02:50:08.713Z,5.21
2019-03-27T02:52:46.282Z,5.15
2019-03-27T02:55:20.826Z,5.16
2019-03-27T02:57:55.406Z,5.18
2019-03-27T03:00:30.068Z,5.28
2019-03-27T03:03:04.891Z,5.23
2019-03-27T03:05:39.409Z,5.19
2019-03-27T03:08:14.102Z,5.16
2019-03-27T03:10:48.681Z,5.16
2019-03-27T03:13:23.295Z,5.23
2019-03-27T03:15:59.951Z,5.17
2019-03-27T03:18:34.655Z,5.23
2019-03-27T03:21:09.284Z,5.30
2019-03-27T03:23:43.887Z,5.34
2019-03-27T03:26:18.402Z,5.27
2019-03-27T03:28:54.843Z,5.33
2019-03-27T03:31:31.311Z,5.28
2019-03-27T03:34:05.818Z,5.36
2019-03-27T03:36:40.824Z,5.41
2019-03-27T03:39:16.278Z,5.40
2019-03-27T03:41:50.762Z,5.30
2019-03-27T03:44:25.785Z,5.36
2019-03-27T03:47:00.770Z,5.33
2019-03-27T03:49:35.399Z,5.30
2019-03-27T03:52:10.165Z,5.23
2019-03-27T03:54:45.097Z,5.31
2019-03-27T03:57:20.221Z,5.24
2019-03-27T03:59:57.989Z,5.30
2019-03-27T04:02:37.290Z,5.24
2019-03-27T04:05:15.881Z,5.26
2019-03-27T04:07:50.567Z,5.12
2019-03-27T04:10:25.228Z,5.22
2019-03-27T04:13:00.078Z,5.11
2019-03-27T04:15:34.679Z,5.12
2019-03-27T04:18:09.550Z,5.14
2019-03-27T04:20:45.857Z,5.12
2019-03-27T04:23:21.542Z,5.13
2019-03-27T04:26:09.092Z,5.17
2019-03-27T04:28:32.438Z,5.23
2019-03-27T04:31:07.140Z,5.21
2019-03-27T04:33:41.656Z,5.20
2019-03-27T04:36:16.423Z,5.20
2019-03-27T04:38:51.077Z,5.14
2019-03-27T04:41:25.977Z,5.23
2019-03-27T04:44:00.607Z,5.23
2019-03-27T04:46:35.134Z,5.24
2019-03-27T04:49:09.771Z,5.21
2019-03-27T04:51:46.221Z,5.09
2019-03-27T04:54:21.098Z,5.12
2019-03-27T04:56:55.813Z,5.32
2019-03-27T04:59:30.220Z,5.34
2019-03-27T05:02:06.608Z,5.39
2019-03-27T05:04:42.816Z,5.39
2019-03-27T05:07:19.306Z,5.50
2019-03-27T05:09:53.716Z,5.39
2019-03-27T05:12:28.454Z,5.30
2019-03-27T05:15:03.189Z,5.50
2019-03-27T05:17:45.858Z,5.48
2019-03-27T05:20:15.245Z,5.39
2019-03-27T05:22:50.585Z,5.38
2019-03-27T05:25:25.821Z,5.36
2019-03-27T05:28:00.416Z,5.33
2019-03-27T05:30:35.136Z,5.39
2019-03-27T05:33:09.670Z,5.39
2019-03-27T05:35:44.226Z,5.42
2019-03-27T05:38:18.838Z,5.60
2019-03-27T05:40:53.435Z,5.43
2019-03-27T05:43:30.330Z,5.61
2019-03-27T05:46:05.956Z,5.52
2019-03-27T05:48:40.922Z,5.53
2019-03-27T05:51:15.699Z,5.69
2019-03-27T05:53:50.153Z,5.66
2019-03-27T05:56:24.543Z,5.69
2019-03-27T05:58:59.010Z,5.82
2019-03-27T06:01:33.451Z,5.82
2019-03-27T06:04:08.030Z,5.75
2019-03-27T06:06:45.535Z,5.80
2019-03-27T06:09:20.171Z,5.66
2019-03-27T06:11:54.734Z,5.74
2019-03-27T06:14:29.217Z,5.77
2019-03-27T06:17:03.797Z,5.84
2019-03-27T06:19:38.356Z,5.92
2019-03-27T06:22:15.302Z,5.89
2019-03-27T06:24:49.947Z,6.10
2019-03-27T06:27:24.593Z,6.14
2019-03-27T06:29:59.107Z,6.08
2019-03-27T06:32:33.756Z,6.07
2019-03-27T06:35:09.861Z,6.14
2019-03-27T06:37:44.529Z,6.17
2019-03-27T06:40:22.209Z,6.37
2019-03-27T06:42:56.864Z,6.47
2019-03-27T06:45:31.383Z,6.45
2019-03-27T06:48:06.368Z,6.37
2019-03-27T06:50:41.341Z,6.52
2019-03-27T06:53:16.213Z,6.55
2019-03-27T06:55:50.712Z,6.63
2019-03-27T06:58:25.301Z,6.76
2019-03-27T07:00:59.845Z,6.75
2019-03-27T07:03:35.340Z,6.74
2019-03-27T07:06:11.260Z,6.73
2019-03-27T07:08:45.905Z,6.84
2019-03-27T07:11:22.252Z,6.82
2019-03-27T07:13:56.771Z,6.76
2019-03-27T07:16:31.511Z,6.77
2019-03-27T07:19:06.164Z,6.79
2019-03-27T07:21:40.616Z,6.85
2019-03-27T07:24:15.337Z,7.00
2019-03-27T07:26:49.968Z,7.14
2019-03-27T07:29:24.894Z,7.29
2019-03-27T07:31:59.440Z,7.38
2019-03-27T07:34:34.199Z,7.53
2019-03-27T07:37:10.474Z,7.60
2019-03-27T07:39:45.162Z,7.89
2019-03-27T07:42:21.290Z,8.12
2019-03-27T07:44:57.507Z,8.16
2019-03-27T07:47:32.308Z,8.55
2019-03-27T07:50:08.178Z,8.75
2019-03-27T07:52:42.611Z,8.92
2019-03-27T07:55:19.699Z,8.65
2019-03-27T07:57:54.945Z,8.65
2019-03-27T08:00:29.793Z,8.63
2019-03-27T08:03:04.419Z,8.64
2019-03-27T08:05:41.261Z,8.66
2019-03-27T08:08:15.908Z,8.68
2019-03-27T08:10:50.487Z,9.09
2019-03-27T08:13:25.056Z,8.94
2019-03-27T08:16:03.471Z,9.18
2019-03-27T08:18:38.202Z,9.50
2019-03-27T08:21:13.660Z,9.63
2019-03-27T08:23:48.567Z,9.73
2019-03-27T08:26:23.222Z,9.83
2019-03-27T08:28:58.280Z,9.47
2019-03-27T08:31:32.817Z,9.31
2019-03-27T08:34:07.327Z,9.36
2019-03-27T08:36:42.351Z,9.43
2019-03-27T08:39:18.282Z,9.59
2019-03-27T08:41:52.951Z,9.59
2019-03-27T08:44:27.593Z,9.63
2019-03-27T08:47:02.274Z,9.74
2019-03-27T08:49:37.436Z,10.12
2019-03-27T08:52:12.375Z,10.18
2019-03-27T08:54:47.063Z,10.19
2019-03-27T08:57:21.590Z,10.39
2019-03-27T08:59:57.908Z,10.46
2019-03-27T09:02:32.581Z,10.50
2019-03-27T09:05:07.890Z,10.88
2019-03-27T09:07:42.454Z,11.07
2019-03-27T09:10:18.985Z,10.96
2019-03-27T09:12:55.387Z,11.18
2019-03-27T09:15:30.106Z,11.25
2019-03-27T09:18:04.624Z,11.06
2019-03-27T09:20:41.113Z,11.01
2019-03-27T09:23:17.172Z,10.92
2019-03-27T09:25:51.775Z,10.89
2019-03-27T09:28:30.017Z,10.67
2019-03-27T09:31:04.524Z,10.90
2019-03-27T09:33:41.915Z,11.26
2019-03-27T09:36:16.478Z,11.41
2019-03-27T09:38:51.066Z,11.36
2019-03-27T09:41:25.802Z,11.71
2019-03-27T09:44:02.177Z,11.94
2019-03-27T09:46:36.790Z,12.37
2019-03-27T09:49:11.370Z,12.82
2019-03-27T09:51:47.768Z,12.81
2019-03-27T09:54:22.432Z,13.10
2019-03-27T09:56:57.371Z,13.15
2019-03-27T09:59:32.259Z,13.65
2019-03-27T10:02:06.855Z,13.32
2019-03-27T10:04:41.731Z,12.90
2019-03-27T10:07:16.147Z,12.49
2019-03-27T10:09:50.740Z,12.42
2019-03-27T10:12:25.696Z,12.13
2019-03-27T10:15:00.353Z,12.46
2019-03-27T10:17:34.830Z,12.37
2019-03-27T10:20:09.574Z,12.08
2019-03-27T10:22:45.864Z,12.46
2019-03-27T10:25:22.753Z,13.15
2019-03-27T10:27:57.675Z,13.39
2019-03-27T10:30:32.407Z,13.50
2019-03-27T10:33:07.079Z,13.23
2019-03-27T10:35:41.883Z,13.61
2019-03-27T10:38:16.482Z,13.70
2019-03-27T10:40:51.166Z,13.94
2019-03-27T10:43:25.634Z,13.85
2019-03-27T10:46:01.995Z,13.79
2019-03-27T10:48:51.443Z,13.71
2019-03-27T10:51:14.942Z,13.68
2019-03-27T10:53:51.303Z,13.60
2019-03-27T10:56:26.251Z,13.18
2019-03-27T10:59:00.785Z,13.03
2019-03-27T11:01:37.140Z,12.87
2019-03-27T11:04:13.074Z,12.85
2019-03-27T11:06:47.618Z,12.83
2019-03-27T11:09:22.343Z,12.59
2019-03-27T11:11:56.968Z,12.57
2019-03-27T11:14:38.113Z,12.45
2019-03-27T11:17:09.819Z,12.49
2019-03-27T11:19:45.977Z,12.33
2019-03-27T11:22:22.121Z,12.48
2019-03-27T11:24:58.179Z,12.42
2019-03-27T11:27:32.741Z,12.31
2019-03-27T11:30:08.546Z,12.17
2019-03-27T11:32:43.516Z,12.11
2019-03-27T11:35:18.456Z,12.06
2019-03-27T11:37:53.565Z,12.28
2019-03-27T11:40:28.090Z,12.56
2019-03-27T11:43:04.865Z,12.74
2019-03-27T11:45:41.333Z,12.89
2019-03-27T11:48:16.215Z,13.11
2019-03-27T11:50:50.848Z,12.79
2019-03-27T11:53:25.419Z,12.87
2019-03-27T11:56:03.239Z,12.98
2019-03-27T11:58:36.403Z,12.99
2019-03-27T12:01:11.403Z,12.93
2019-03-27T12:03:46.009Z,12.45
2019-03-27T12:06:22.032Z,12.67
2019-03-27T12:08:57.277Z,12.13
2019-03-27T12:11:32.103Z,12.32
2019-03-27T12:14:06.727Z,12.53
2019-03-27T12:16:41.311Z,12.56
2019-03-27T12:19:16.096Z,12.85
2019-03-27T12:21:51.119Z,12.90
2019-03-27T12:24:28.595Z,12.70
2019-03-27T12:27:05.070Z,12.50
2019-03-27T12:29:41.360Z,12.30
2019-03-27T12:32:16.303Z,12.47
2019-03-27T12:34:50.904Z,12.76
2019-03-27T12:37:25.690Z,13.06
2019-03-27T12:40:01.180Z,13.26
2019-03-27T12:42:38.392Z,12.93
2019-03-27T12:45:15.808Z,13.02
2019-03-27T12:47:50.405Z,13.00
2019-03-27T12:50:25.421Z,12.90
2019-03-27T12:53:01.436Z,12.93
2019-03-27T12:55:36.318Z,13.16
2019-03-27T12:58:12.685Z,13.23
2019-03-27T13:00:47.265Z,13.03
2019-03-27T13:03:22.027Z,13.25
2019-03-27T13:05:56.653Z,12.94
2019-03-27T13:08:32.961Z,13.16
2019-03-27T13:11:09.313Z,13.30
2019-03-27T13:13:44.733Z,13.15
2019-03-27T13:16:19.478Z,13.20
2019-03-27T13:18:56.032Z,13.10
2019-03-27T13:21:30.498Z,13.34
2019-03-27T13:24:05.312Z,13.18
2019-03-27T13:26:40.225Z,13.43
2019-03-27T13:29:15.272Z,13.78
2019-03-27T13:31:50.240Z,13.84
2019-03-27T13:34:26.452Z,13.58
2019-03-27T13:37:01.506Z,13.70
2019-03-27T13:39:37.655Z,13.74
2019-03-27T13:42:13.684Z,13.56
2019-03-27T13:44:48.404Z,13.55
2019-03-27T13:47:23.266Z,13.47
2019-03-27T13:49:59.796Z,13.63
2019-03-27T13:52:34.842Z,13.52
2019-03-27T13:55:10.066Z,13.49
2019-03-27T13:57:46.175Z,13.49
2019-03-27T14:00:21.529Z,13.41
2019-03-27T14:02:56.053Z,13.50
2019-03-27T14:05:32.496Z,13.49
2019-03-27T14:08:07.978Z,13.42
2019-03-27T14:10:44.525Z,13.48
2019-03-27T14:13:19.361Z,13.50
2019-03-27T14:15:54.045Z,13.39
2019-03-27T14:18:28.714Z,13.36
2019-03-27T14:21:03.311Z,13.35
2019-03-27T14:23:37.952Z,13.26
2019-03-27T14:26:14.061Z,13.31
2019-03-27T14:28:49.289Z,13.24
2019-03-27T14:31:23.957Z,13.30
2019-03-27T14:33:58.634Z,12.91
2019-03-27T14:36:34.844Z,12.98
2019-03-27T14:39:10.414Z,12.99
2019-03-27T14:41:46.800Z,12.86
2019-03-27T14:44:21.491Z,12.82
2019-03-27T14:46:58.248Z,12.87
2019-03-27T14:49:37.538Z,12.97
2019-03-27T14:52:10.764Z,12.68
2019-03-27T14:54:45.304Z,12.68
2019-03-27T14:57:19.842Z,12.57
2019-03-27T14:59:55.820Z,12.48
2019-03-27T15:02:30.727Z,12.68
2019-03-27T15:05:05.857Z,12.51
2019-03-27T15:07:46.818Z,12.36
2019-03-27T15:10:22.175Z,12.41
2019-03-27T15:12:56.973Z,12.21
2019-03-27T15:15:31.789Z,12.28
2019-03-27T15:18:06.949Z,12.14
2019-03-27T15:20:41.501Z,12.18
2019-03-27T15:23:16.178Z,12.32
2019-03-27T15:25:52.347Z,12.15
2019-03-27T15:28:28.064Z,11.93
2019-03-27T15:31:04.171Z,12.15
2019-03-27T15:33:40.579Z,11.94
2019-03-27T15:36:15.376Z,12.09
2019-03-27T15:38:49.972Z,12.06
2019-03-27T15:41:24.852Z,12.00
2019-03-27T15:44:00.025Z,11.96
2019-03-27T15:46:36.453Z,11.79
2019-03-27T15:49:11.047Z,11.81
2019-03-27T15:51:46.352Z,11.78
2019-03-27T15:54:20.995Z,11.85
2019-03-27T15:56:55.538Z,11.80
2019-03-27T15:59:30.117Z,11.85
2019-03-27T16:02:05.957Z,11.69
2019-03-27T16:04:42.115Z,11.80
2019-03-27T16:07:18.835Z,11.65
2019-03-27T16:09:55.174Z,11.64
2019-03-27T16:12:29.887Z,11.38
2019-03-27T16:15:04.758Z,11.47
2019-03-27T16:17:39.594Z,11.63
2019-03-27T16:20:15.777Z,11.61
2019-03-27T16:22:51.318Z,11.45
2019-03-27T16:25:26.107Z,11.29
2019-03-27T16:28:00.843Z,11.40
2019-03-27T16:30:35.510Z,11.44
2019-03-27T16:33:10.639Z,11.27
2019-03-27T16:35:45.151Z,11.41
2019-03-27T16:38:19.792Z,11.27
2019-03-27T16:40:55.836Z,11.25
2019-03-27T16:43:30.915Z,11.30
2019-03-27T16:46:06.960Z,11.22
2019-03-27T16:48:43.309Z,11.10
2019-03-27T16:51:18.336Z,10.98
2019-03-27T16:53:53.434Z,10.81
2019-03-27T16:56:28.988Z,10.88
2019-03-27T16:59:04.288Z,10.95
2019-03-27T17:01:39.006Z,10.87
2019-03-27T17:04:13.633Z,10.74
2019-03-27T17:06:50.045Z,10.76
2019-03-27T17:09:25.039Z,10.72
2019-03-27T17:11:59.561Z,10.62
2019-03-27T17:14:36.155Z,10.49
2019-03-27T17:17:11.060Z,10.59
2019-03-27T17:19:45.566Z,10.43
2019-03-27T17:22:20.279Z,10.45
2019-03-27T17:24:56.159Z,10.48
2019-03-27T17:27:30.972Z,10.44
2019-03-27T17:30:06.788Z,10.40
2019-03-27T17:32:41.653Z,10.44
2019-03-27T17:35:16.311Z,10.27
2019-03-27T17:37:51.816Z,10.23
2019-03-27T17:40:26.478Z,10.21
2019-03-27T17:43:03.261Z,10.26
2019-03-27T17:45:38.226Z,10.24
2019-03-27T17:48:15.049Z,10.09
2019-03-27T17:50:50.124Z,10.16
2019-03-27T17:53:31.614Z,10.20
2019-03-27T17:56:01.564Z,10.09
2019-03-27T17:58:36.431Z,10.03
2019-03-27T18:01:12.993Z,10.12
2019-03-27T18:03:48.185Z,10.16
2019-03-27T18:06:22.847Z,10.04
2019-03-27T18:08:58.344Z,9.79
2019-03-27T18:11:33.394Z,9.93
2019-03-27T18:14:07.987Z,9.71
2019-03-27T18:16:42.717Z,9.72
2019-03-27T18:19:17.652Z,9.68
2019-03-27T18:22:07.173Z,9.69
2019-03-27T18:24:30.677Z,9.84
2019-03-27T18:27:09.013Z,9.75
2019-03-27T18:29:43.489Z,9.72
2019-03-27T18:32:18.026Z,9.65
2019-03-27T18:34:54.815Z,9.69
2019-03-27T18:37:29.494Z,9.73
2019-03-27T18:40:04.806Z,9.69
2019-03-27T18:42:41.407Z,9.81
2019-03-27T18:45:16.584Z,9.82
2019-03-27T18:47:51.298Z,9.88
2019-03-27T18:50:26.011Z,9.81
2019-03-27T18:53:00.466Z,9.77
2019-03-27T18:55:37.722Z,9.78
2019-03-27T18:58:14.125Z,9.81
2019-03-27T19:00:48.871Z,9.79
2019-03-27T19:03:23.507Z,9.77
2019-03-27T19:05:58.567Z,9.66
2019-03-27T19:08:33.403Z,9.69
2019-03-27T19:11:10.409Z,9.62
2019-03-27T19:13:44.865Z,9.49
2019-03-27T19:16:19.858Z,9.77
2019-03-27T19:18:54.655Z,9.56
2019-03-27T19:21:31.922Z,9.58
2019-03-27T19:24:16.086Z,9.52
2019-03-27T19:26:48.268Z,9.63
2019-03-27T19:29:24.616Z,9.46
2019-03-27T19:32:00.389Z,9.47
2019-03-27T19:34:34.919Z,9.60
2019-03-27T19:37:09.887Z,9.39
2019-03-27T19:39:44.542Z,9.42
2019-03-27T19:42:20.848Z,9.51
2019-03-27T19:44:55.377Z,9.32
2019-03-27T19:47:30.348Z,9.17
2019-03-27T19:50:05.132Z,9.12
2019-03-27T19:52:45.556Z,9.15
2019-03-27T19:55:20.139Z,9.13
2019-03-27T19:57:54.714Z,9.16
2019-03-27T20:00:30.159Z,9.01
2019-03-27T20:03:05.693Z,8.92
2019-03-27T20:05:40.975Z,8.84
2019-03-27T20:08:17.395Z,8.81
2019-03-27T20:10:52.366Z,8.96
2019-03-27T20:13:29.107Z,8.91
2019-03-27T20:16:06.042Z,8.95
2019-03-27T20:18:42.058Z,8.97
2019-03-27T20:21:16.981Z,8.70
2019-03-27T20:23:51.730Z,8.73
2019-03-27T20:26:26.635Z,8.84
2019-03-27T20:29:01.276Z,8.67
2019-03-27T20:31:37.606Z,8.66
2019-03-27T20:34:14.213Z,8.63
2019-03-27T20:36:49.061Z,8.60
2019-03-27T20:39:27.156Z,8.62
2019-03-27T20:42:02.889Z,8.70
2019-03-27T20:44:39.276Z,8.66
2019-03-27T20:47:15.620Z,8.63
2019-03-27T20:49:50.775Z,8.57
2019-03-27T20:52:25.474Z,8.63
2019-03-27T20:55:02.747Z,8.52
2019-03-27T20:57:39.252Z,8.62
2019-03-27T21:00:16.405Z,8.55
2019-03-27T21:02:52.848Z,8.74
2019-03-27T21:05:29.567Z,8.77
2019-03-27T21:08:04.724Z,8.76
2019-03-27T21:10:41.941Z,8.67
2019-03-27T21:13:18.056Z,8.70
2019-03-27T21:15:54.399Z,8.69
2019-03-27T21:18:29.412Z,8.73
2019-03-27T21:21:04.308Z,8.68
2019-03-27T21:23:40.673Z,8.66
2019-03-27T21:26:18.594Z,8.66
2019-03-27T21:28:53.729Z,8.63
2019-03-27T21:31:29.123Z,8.62
2019-03-27T21:34:03.728Z,8.57
2019-03-27T21:36:38.943Z,8.68
2019-03-27T21:39:13.791Z,8.63
2019-03-27T21:41:48.496Z,8.61
2019-03-27T21:44:23.242Z,8.51
2019-03-27T21:46:57.682Z,8.59
2019-03-27T21:49:32.115Z,8.54
2019-03-27T21:52:06.898Z,8.45
2019-03-27T21:54:45.066Z,8.52
2019-03-27T21:57:21.052Z,8.43
2019-03-27T21:59:57.050Z,8.47
2019-03-27T22:02:33.050Z,8.43
2019-03-27T22:05:08.312Z,8.50
2019-03-27T22:07:42.989Z,8.51
2019-03-27T22:10:17.599Z,8.42
2019-03-27T22:12:52.187Z,8.46
2019-03-27T22:15:27.258Z,8.47
2019-03-27T22:18:01.741Z,8.50
2019-03-27T22:20:39.478Z,8.50
2019-03-27T22:23:12.729Z,8.53
2019-03-27T22:25:49.658Z,8.53
2019-03-27T22:28:26.085Z,8.45
2019-03-27T22:31:02.862Z,8.53
2019-03-27T22:33:37.542Z,8.53
2019-03-27T22:36:12.088Z,8.45
2019-03-27T22:38:48.511Z,8.47
2019-03-27T22:41:24.435Z,8.50
2019-03-27T22:43:59.389Z,8.52
2019-03-27T22:46:34.213Z,8.42
2019-03-27T22:49:10.833Z,8.51
2019-03-27T22:51:45.979Z,8.60
2019-03-27T22:54:20.554Z,8.56
2019-03-27T22:56:55.523Z,8.57
2019-03-27T22:59:30.202Z,8.53
2019-03-27T23:02:04.863Z,8.56
2019-03-27T23:04:39.454Z,8.48
2019-03-27T23:07:13.992Z,8.56
2019-03-27T23:09:51.669Z,8.65
2019-03-27T23:12:27.116Z,8.69
2019-03-27T23:15:03.470Z,8.72
2019-03-27T23:17:38.018Z,8.67
2019-03-27T23:20:14.342Z,8.66
2019-03-27T23:22:48.933Z,8.57
2019-03-27T23:25:23.486Z,8.50
2019-03-27T23:28:00.097Z,8.61
2019-03-27T23:30:34.724Z,8.52
2019-03-27T23:33:09.227Z,8.53
2019-03-27T23:35:44.252Z,8.48
2019-03-27T23:38:19.322Z,8.45
2019-03-27T23:40:53.971Z,8.46
2019-03-27T23:43:28.984Z,8.38
2019-03-27T23:46:05.183Z,8.45
2019-03-27T23:48:39.782Z,8.47
2019-03-27T23:51:14.499Z,8.48
2019-03-27T23:53:49.116Z,8.51
2019-03-27T23:56:25.655Z,8.42
2019-03-27T23:59:00.230Z,8.51
